PAWN

Details ICAO PAWN (WTK)
Name NOATAK
Region USA (Alaska)
Timezone America/Nome (UTC-8.0)
Plans Departing 2
Arriving 1
Stats Elevation 88 ft / 27 m (AMSL)
Location 67.562083° -162.975033°
Runways 1
Magnetic Variation 11.201° E
Sunrise 2018-05-24 11:53:15 UTC / 2018-05-24 03:53:15 Local
Sunset 2018-05-25 09:47:11 UTC / 2018-05-25 01:47:11 Local
Advertisement - Login to hide

Runways

ID Width Length Bearing (true) Bearing (mag) Surface Threshold Offset Overrun Length
18 59 ft / 18 m 3,996 ft / 1,218 m 203.11° 191.91° Gravel 0 ft / 0 m 0 ft / 0 m
36 59 ft / 18 m 3,996 ft / 1,218 m 23.10° 11.90° Gravel 0 ft / 0 m 0 ft / 0 m

Map

Weather


0- 5 10 15 20 25 30 35+ Temperature / ° C

Clouds and Precipitation
Forecast for 2018-05-24 18:00 UTC. Updated 3 hours ago

Ground ~20,000 ft ~40,000 ft Winds

METAR

PAWN 241956Z AUTO 00000KT 10SM OVC012 03/M01 A2978 RMK AO2 SLP100 T00281011 $

TAF

Not found

Frequencies

Recorded 135.75 MHz AWOS 3
Unicom 122.40 MHz Kotzebue FSS
Unicom 122.80 MHz CTAF/UNICOM
Approach 119.20 MHz Anchorage ARTCC
Warning: Do not use this data for real-world aviation or navigation. No guarantee of current accuracy is given.